sensor_id;sensor_type;location;lat;lon;timestamp;pressure;altitude;pressure_sealevel;temperature;humidity
35676;BME280;21790;42.668;23.298;2023-11-21T00:01:36;94527.06;;;11.13;48.10
35676;BME280;21790;42.668;23.298;2023-11-21T00:04:02;94529.66;;;11.41;47.23
35676;BME280;21790;42.668;23.298;2023-11-21T00:06:28;94524.19;;;11.31;47.45
35676;BME280;21790;42.668;23.298;2023-11-21T00:09:07;94527.50;;;11.45;46.86
35676;BME280;21790;42.668;23.298;2023-11-21T00:11:41;94513.47;;;11.72;46.82
35676;BME280;21790;42.668;23.298;2023-11-21T00:14:07;94522.91;;;11.65;46.17
35676;BME280;21790;42.668;23.298;2023-11-21T00:16:33;94528.97;;;11.55;46.23
35676;BME280;21790;42.668;23.298;2023-11-21T00:18:59;94527.03;;;11.46;46.70
35676;BME280;21790;42.668;23.298;2023-11-21T00:21:24;94533.47;;;11.19;47.39
35676;BME280;21790;42.668;23.298;2023-11-21T00:23:50;94526.97;;;11.31;47.05
35676;BME280;21790;42.668;23.298;2023-11-21T00:26:16;94535.59;;;11.24;47.29
35676;BME280;21790;42.668;23.298;2023-11-21T00:28:57;94520.72;;;11.46;46.98
35676;BME280;21790;42.668;23.298;2023-11-21T00:31:22;94508.19;;;11.12;47.68
35676;BME280;21790;42.668;23.298;2023-11-21T00:33:53;94512.84;;;11.29;47.71
35676;BME280;21790;42.668;23.298;2023-11-21T00:36:21;94518.72;;;11.22;48.13
35676;BME280;21790;42.668;23.298;2023-11-21T00:38:46;94508.78;;;11.16;48.07
35676;BME280;21790;42.668;23.298;2023-11-21T00:41:13;94517.97;;;11.22;48.36
35676;BME280;21790;42.668;23.298;2023-11-21T00:43:42;94508.59;;;11.19;48.77
35676;BME280;21790;42.668;23.298;2023-11-21T00:46:09;94521.44;;;11.31;48.28
35676;BME280;21790;42.668;23.298;2023-11-21T00:48:34;94517.06;;;11.16;48.35
35676;BME280;21790;42.668;23.298;2023-11-21T00:51:00;94519.75;;;11.34;47.91
35676;BME280;21790;42.668;23.298;2023-11-21T00:53:26;94521.78;;;11.24;48.32
35676;BME280;21790;42.668;23.298;2023-11-21T00:55:53;94513.59;;;11.06;48.82
35676;BME280;21790;42.668;23.298;2023-11-21T00:58:24;94509.94;;;11.24;48.39
35676;BME280;21790;42.668;23.298;2023-11-21T01:00:52;94508.91;;;11.21;48.41
35676;BME280;21790;42.668;23.298;2023-11-21T01:03:23;94502.66;;;11.36;47.80
35676;BME280;21790;42.668;23.298;2023-11-21T01:05:49;94512.78;;;11.39;47.13
35676;BME280;21790;42.668;23.298;2023-11-21T01:08:16;94506.91;;;11.22;47.25
35676;BME280;21790;42.668;23.298;2023-11-21T01:10:42;94507.47;;;11.26;46.96
35676;BME280;21790;42.668;23.298;2023-11-21T01:13:07;94494.19;;;11.39;46.51
35676;BME280;21790;42.668;23.298;2023-11-21T01:15:39;94497.88;;;11.60;46.00
35676;BME280;21790;42.668;23.298;2023-11-21T01:18:06;94491.88;;;11.38;46.44
35676;BME280;21790;42.668;23.298;2023-11-21T01:20:43;94506.44;;;11.23;47.22
35676;BME280;21790;42.668;23.298;2023-11-21T01:23:37;94502.78;;;11.17;47.56
35676;BME280;21790;42.668;23.298;2023-11-21T01:26:09;94507.94;;;11.24;47.52
35676;BME280;21790;42.668;23.298;2023-11-21T01:28:48;94507.06;;;11.18;47.61
35676;BME280;21790;42.668;23.298;2023-11-21T01:31:15;94494.91;;;10.92;48.03
35676;BME280;21790;42.668;23.298;2023-11-21T01:33:41;94495.69;;;10.93;47.68
35676;BME280;21790;42.668;23.298;2023-11-21T01:36:07;94499.53;;;10.95;48.07
35676;BME280;21790;42.668;23.298;2023-11-21T01:38:33;94502.94;;;10.81;48.11
35676;BME280;21790;42.668;23.298;2023-11-21T01:40:59;94509.88;;;10.85;48.24
35676;BME280;21790;42.668;23.298;2023-11-21T01:43:26;94504.16;;;10.89;48.11
35676;BME280;21790;42.668;23.298;2023-11-21T01:45:56;94508.06;;;10.73;48.49
35676;BME280;21790;42.668;23.298;2023-11-21T01:48:23;94505.53;;;10.52;49.09
35676;BME280;21790;42.668;23.298;2023-11-21T01:50:50;94493.53;;;10.55;49.18
35676;BME280;21790;42.668;23.298;2023-11-21T01:53:17;94491.63;;;10.70;48.83
35676;BME280;21790;42.668;23.298;2023-11-21T01:55:45;94487.25;;;10.87;47.88
35676;BME280;21790;42.668;23.298;2023-11-21T01:58:11;94498.41;;;10.69;48.31
35676;BME280;21790;42.668;23.298;2023-11-21T02:00:38;94506.25;;;10.61;48.36
35676;BME280;21790;42.668;23.298;2023-11-21T02:03:04;94509.53;;;10.51;48.69
35676;BME280;21790;42.668;23.298;2023-11-21T02:05:29;94502.34;;;10.44;49.05
35676;BME280;21790;42.668;23.298;2023-11-21T02:07:58;94505.13;;;10.77;48.41
35676;BME280;21790;42.668;23.298;2023-11-21T02:10:28;94504.09;;;10.65;48.31
35676;BME280;21790;42.668;23.298;2023-11-21T02:12:58;94501.97;;;10.60;48.40
35676;BME280;21790;42.668;23.298;2023-11-21T02:15:27;94501.19;;;10.60;48.53
35676;BME280;21790;42.668;23.298;2023-11-21T02:17:56;94496.88;;;10.68;48.11
35676;BME280;21790;42.668;23.298;2023-11-21T02:23:28;94495.91;;;10.47;48.02
35676;BME280;21790;42.668;23.298;2023-11-21T02:25:54;94494.25;;;10.73;47.27
35676;BME280;21790;42.668;23.298;2023-11-21T02:28:23;94488.41;;;10.71;47.54
35676;BME280;21790;42.668;23.298;2023-11-21T02:30:54;94487.56;;;10.56;47.92
35676;BME280;21790;42.668;23.298;2023-11-21T02:33:21;94492.13;;;10.59;47.61
35676;BME280;21790;42.668;23.298;2023-11-21T02:35:47;94486.66;;;10.50;48.17
35676;BME280;21790;42.668;23.298;2023-11-21T02:38:14;94492.38;;;10.46;48.15
35676;BME280;21790;42.668;23.298;2023-11-21T02:40:42;94495.09;;;10.56;47.97
35676;BME280;21790;42.668;23.298;2023-11-21T02:43:08;94493.63;;;10.36;48.50
35676;BME280;21790;42.668;23.298;2023-11-21T02:45:36;94485.94;;;10.31;48.95
35676;BME280;21790;42.668;23.298;2023-11-21T02:48:02;94496.84;;;10.35;48.25
35676;BME280;21790;42.668;23.298;2023-11-21T02:50:30;94482.81;;;10.47;48.18
35676;BME280;21790;42.668;23.298;2023-11-21T02:52:56;94488.47;;;10.53;47.79
35676;BME280;21790;42.668;23.298;2023-11-21T02:55:27;94476.19;;;10.54;47.82
35676;BME280;21790;42.668;23.298;2023-11-21T02:58:06;94489.88;;;10.48;48.02
35676;BME280;21790;42.668;23.298;2023-11-21T03:00:38;94492.91;;;10.18;48.96
35676;BME280;21790;42.668;23.298;2023-11-21T03:03:08;94482.44;;;10.13;49.14
35676;BME280;21790;42.668;23.298;2023-11-21T03:05:43;94486.22;;;10.42;48.34
35676;BME280;21790;42.668;23.298;2023-11-21T03:08:10;94477.66;;;10.40;48.23
35676;BME280;21790;42.668;23.298;2023-11-21T03:13:48;94483.31;;;10.37;47.47
35676;BME280;21790;42.668;23.298;2023-11-21T03:16:21;94476.56;;;10.47;47.47
35676;BME280;21790;42.668;23.298;2023-11-21T03:18:55;94485.00;;;10.43;47.54
35676;BME280;21790;42.668;23.298;2023-11-21T03:21:22;94488.88;;;10.09;48.30
35676;BME280;21790;42.668;23.298;2023-11-21T03:27:23;94496.09;;;10.16;48.53
35676;BME280;21790;42.668;23.298;2023-11-21T03:29:58;94502.09;;;10.05;49.10
35676;BME280;21790;42.668;23.298;2023-11-21T03:32:33;94494.44;;;10.19;48.60
35676;BME280;21790;42.668;23.298;2023-11-21T03:35:26;94502.78;;;10.42;48.02
35676;BME280;21790;42.668;23.298;2023-11-21T03:37:56;94504.50;;;10.40;47.86
35676;BME280;21790;42.668;23.298;2023-11-21T03:40:42;94496.38;;;10.27;48.40
35676;BME280;21790;42.668;23.298;2023-11-21T03:43:23;94492.53;;;10.34;48.55
35676;BME280;21790;42.668;23.298;2023-11-21T03:46:11;94494.69;;;10.39;48.28
35676;BME280;21790;42.668;23.298;2023-11-21T03:48:38;94477.50;;;10.26;48.34
35676;BME280;21790;42.668;23.298;2023-11-21T03:51:20;94473.28;;;10.58;47.93
35676;BME280;21790;42.668;23.298;2023-11-21T03:53:46;94480.09;;;10.38;47.93
35676;BME280;21790;42.668;23.298;2023-11-21T03:56:14;94468.72;;;10.45;48.06
35676;BME280;21790;42.668;23.298;2023-11-21T03:58:44;94475.28;;;10.57;47.76
35676;BME280;21790;42.668;23.298;2023-11-21T04:01:22;94476.78;;;10.67;47.49
35676;BME280;21790;42.668;23.298;2023-11-21T04:04:07;94450.88;;;10.56;47.68
35676;BME280;21790;42.668;23.298;2023-11-21T04:06:32;94473.03;;;10.37;47.99
35676;BME280;21790;42.668;23.298;2023-11-21T04:08:59;94462.44;;;10.45;47.99
35676;BME280;21790;42.668;23.298;2023-11-21T04:11:31;94470.41;;;10.52;48.03
35676;BME280;21790;42.668;23.298;2023-11-21T04:14:28;94465.91;;;10.55;47.98
35676;BME280;21790;42.668;23.298;2023-11-21T04:17:04;94469.13;;;10.53;48.51
35676;BME280;21790;42.668;23.298;2023-11-21T04:19:31;94459.56;;;10.30;48.74
35676;BME280;21790;42.668;23.298;2023-11-21T04:22:19;94469.78;;;10.48;48.50
35676;BME280;21790;42.668;23.298;2023-11-21T04:24:44;94465.72;;;10.25;48.75
35676;BME280;21790;42.668;23.298;2023-11-21T04:27:09;94466.16;;;10.15;49.45
35676;BME280;21790;42.668;23.298;2023-11-21T04:29:35;94467.88;;;10.12;49.45
35676;BME280;21790;42.668;23.298;2023-11-21T04:32:09;94470.75;;;10.36;48.92
35676;BME280;21790;42.668;23.298;2023-11-21T04:34:36;94466.81;;;10.19;49.42
35676;BME280;21790;42.668;23.298;2023-11-21T04:37:06;94475.50;;;10.35;48.88
35676;BME280;21790;42.668;23.298;2023-11-21T04:39:42;94472.44;;;10.33;49.17
35676;BME280;21790;42.668;23.298;2023-11-21T04:42:19;94471.53;;;10.27;48.79
35676;BME280;21790;42.668;23.298;2023-11-21T04:44:48;94474.47;;;10.24;49.47
35676;BME280;21790;42.668;23.298;2023-11-21T04:47:18;94472.03;;;10.07;49.72
35676;BME280;21790;42.668;23.298;2023-11-21T04:49:56;94475.69;;;10.14;49.51
35676;BME280;21790;42.668;23.298;2023-11-21T04:52:59;94487.66;;;10.29;49.58
35676;BME280;21790;42.668;23.298;2023-11-21T04:55:25;94478.75;;;10.16;49.49
35676;BME280;21790;42.668;23.298;2023-11-21T04:58:06;94471.56;;;10.18;49.71
35676;BME280;21790;42.668;23.298;2023-11-21T05:00:37;94468.03;;;10.18;49.83
35676;BME280;21790;42.668;23.298;2023-11-21T05:03:10;94470.31;;;10.10;49.73
35676;BME280;21790;42.668;23.298;2023-11-21T05:05:36;94489.50;;;10.14;50.07
35676;BME280;21790;42.668;23.298;2023-11-21T05:08:04;94491.81;;;10.06;50.29
35676;BME280;21790;42.668;23.298;2023-11-21T05:10:39;94468.44;;;10.34;49.59
35676;BME280;21790;42.668;23.298;2023-11-21T05:13:10;94471.41;;;10.22;49.81
35676;BME280;21790;42.668;23.298;2023-11-21T05:15:36;94467.28;;;10.08;49.59
35676;BME280;21790;42.668;23.298;2023-11-21T05:18:11;94467.06;;;10.39;48.87
35676;BME280;21790;42.668;23.298;2023-11-21T05:20:39;94468.03;;;10.18;49.30
35676;BME280;21790;42.668;23.298;2023-11-21T05:23:07;94457.44;;;10.25;49.23
35676;BME280;21790;42.668;23.298;2023-11-21T05:25:34;94463.28;;;10.18;49.63
35676;BME280;21790;42.668;23.298;2023-11-21T05:31:17;94477.25;;;11.22;47.99
35676;BME280;21790;42.668;23.298;2023-11-21T05:33:43;94479.34;;;11.04;48.34
35676;BME280;21790;42.668;23.298;2023-11-21T05:36:16;94479.41;;;10.95;48.06
35676;BME280;21790;42.668;23.298;2023-11-21T05:38:43;94476.13;;;10.72;48.72
35676;BME280;21790;42.668;23.298;2023-11-21T05:41:13;94480.94;;;10.63;49.09
35676;BME280;21790;42.668;23.298;2023-11-21T05:43:42;94476.06;;;10.48;49.15
35676;BME280;21790;42.668;23.298;2023-11-21T05:46:08;94491.56;;;10.55;49.35
35676;BME280;21790;42.668;23.298;2023-11-21T05:48:34;94488.06;;;10.45;49.39
35676;BME280;21790;42.668;23.298;2023-11-21T05:51:06;94482.50;;;10.55;49.50
35676;BME280;21790;42.668;23.298;2023-11-21T05:53:47;94481.56;;;10.58;49.23
35676;BME280;21790;42.668;23.298;2023-11-21T05:56:13;94474.25;;;10.45;48.98
35676;BME280;21790;42.668;23.298;2023-11-21T05:58:39;94476.06;;;10.58;48.34
35676;BME280;21790;42.668;23.298;2023-11-21T06:01:06;94477.66;;;10.73;48.17
35676;BME280;21790;42.668;23.298;2023-11-21T06:03:39;94481.47;;;10.76;48.11
35676;BME280;21790;42.668;23.298;2023-11-21T06:06:07;94469.91;;;10.86;47.74
35676;BME280;21790;42.668;23.298;2023-11-21T06:08:35;94477.16;;;10.84;47.96
35676;BME280;21790;42.668;23.298;2023-11-21T06:11:00;94476.22;;;10.87;47.47
35676;BME280;21790;42.668;23.298;2023-11-21T06:13:27;94488.47;;;10.95;47.91
35676;BME280;21790;42.668;23.298;2023-11-21T06:15:53;94489.88;;;10.90;48.01
35676;BME280;21790;42.668;23.298;2023-11-21T06:18:19;94490.22;;;10.83;48.40
35676;BME280;21790;42.668;23.298;2023-11-21T06:20:53;94500.88;;;11.00;48.41
35676;BME280;21790;42.668;23.298;2023-11-21T06:26:38;94504.22;;;10.80;48.75
35676;BME280;21790;42.668;23.298;2023-11-21T06:29:08;94497.72;;;10.83;48.75
35676;BME280;21790;42.668;23.298;2023-11-21T06:31:56;94498.28;;;10.96;48.92
35676;BME280;21790;42.668;23.298;2023-11-21T06:34:36;94501.53;;;11.18;48.70
35676;BME280;21790;42.668;23.298;2023-11-21T06:37:04;94498.19;;;11.14;48.48
35676;BME280;21790;42.668;23.298;2023-11-21T06:39:31;94511.72;;;11.36;47.76
35676;BME280;21790;42.668;23.298;2023-11-21T06:42:04;94515.13;;;11.55;47.17
35676;BME280;21790;42.668;23.298;2023-11-21T06:44:29;94507.63;;;11.70;47.03
35676;BME280;21790;42.668;23.298;2023-11-21T06:46:57;94519.63;;;11.76;46.83
35676;BME280;21790;42.668;23.298;2023-11-21T06:49:25;94529.03;;;12.08;46.45
35676;BME280;21790;42.668;23.298;2023-11-21T06:52:01;94511.66;;;12.66;48.07
35676;BME280;21790;42.668;23.298;2023-11-21T06:54:31;94510.16;;;12.65;45.94
35676;BME280;21790;42.668;23.298;2023-11-21T06:56:57;94504.88;;;12.67;45.09
35676;BME280;21790;42.668;23.298;2023-11-21T06:59:23;94515.00;;;12.85;44.78
35676;BME280;21790;42.668;23.298;2023-11-21T07:01:49;94511.16;;;12.97;44.55
35676;BME280;21790;42.668;23.298;2023-11-21T07:04:15;94514.88;;;13.09;44.26
35676;BME280;21790;42.668;23.298;2023-11-21T07:06:40;94506.94;;;13.02;44.24
35676;BME280;21790;42.668;23.298;2023-11-21T07:09:06;94510.47;;;13.17;44.49
35676;BME280;21790;42.668;23.298;2023-11-21T07:11:34;94497.72;;;13.25;44.31
35676;BME280;21790;42.668;23.298;2023-11-21T07:14:00;94497.38;;;13.37;44.13
35676;BME280;21790;42.668;23.298;2023-11-21T07:16:30;94499.38;;;13.37;43.79
35676;BME280;21790;42.668;23.298;2023-11-21T07:18:56;94484.31;;;13.23;43.85
35676;BME280;21790;42.668;23.298;2023-11-21T07:21:22;94498.22;;;13.09;44.26
35676;BME280;21790;42.668;23.298;2023-11-21T07:23:47;94498.81;;;13.13;44.29
35676;BME280;21790;42.668;23.298;2023-11-21T07:26:13;94501.09;;;13.14;44.27
35676;BME280;21790;42.668;23.298;2023-11-21T07:28:38;94503.47;;;13.07;44.13
35676;BME280;21790;42.668;23.298;2023-11-21T07:31:04;94501.69;;;13.04;43.92
35676;BME280;21790;42.668;23.298;2023-11-21T07:33:29;94511.41;;;12.99;44.05
35676;BME280;21790;42.668;23.298;2023-11-21T07:35:55;94508.06;;;13.10;44.09
35676;BME280;21790;42.668;23.298;2023-11-21T07:38:21;94494.31;;;13.00;43.99
35676;BME280;21790;42.668;23.298;2023-11-21T07:40:46;94501.00;;;13.09;43.79
35676;BME280;21790;42.668;23.298;2023-11-21T07:43:12;94502.34;;;12.98;44.30
35676;BME280;21790;42.668;23.298;2023-11-21T07:45:38;94508.69;;;12.84;44.51
35676;BME280;21790;42.668;23.298;2023-11-21T07:48:04;94501.31;;;12.96;44.49
35676;BME280;21790;42.668;23.298;2023-11-21T07:50:30;94498.22;;;12.59;45.02
35676;BME280;21790;42.668;23.298;2023-11-21T07:52:57;94500.97;;;12.59;45.38
35676;BME280;21790;42.668;23.298;2023-11-21T07:55:23;94494.53;;;12.82;44.82
35676;BME280;21790;42.668;23.298;2023-11-21T07:57:50;94484.97;;;12.83;44.55
35676;BME280;21790;42.668;23.298;2023-11-21T08:00:16;94486.72;;;12.81;44.74
35676;BME280;21790;42.668;23.298;2023-11-21T08:02:41;94482.09;;;12.78;44.71
35676;BME280;21790;42.668;23.298;2023-11-21T08:05:12;94479.84;;;12.62;45.35
35676;BME280;21790;42.668;23.298;2023-11-21T08:07:38;94483.59;;;12.58;45.18
35676;BME280;21790;42.668;23.298;2023-11-21T08:10:04;94478.72;;;12.39;45.52
35676;BME280;21790;42.668;23.298;2023-11-21T08:12:32;94484.63;;;12.46;45.52
35676;BME280;21790;42.668;23.298;2023-11-21T08:14:59;94475.25;;;12.58;45.20
35676;BME280;21790;42.668;23.298;2023-11-21T08:17:25;94492.84;;;12.70;45.24
35676;BME280;21790;42.668;23.298;2023-11-21T08:19:51;94482.28;;;12.89;45.40
35676;BME280;21790;42.668;23.298;2023-11-21T08:22:16;94474.19;;;13.06;45.20
35676;BME280;21790;42.668;23.298;2023-11-21T08:24:43;94481.47;;;13.18;44.81
35676;BME280;21790;42.668;23.298;2023-11-21T08:27:09;94474.53;;;13.28;44.25
35676;BME280;21790;42.668;23.298;2023-11-21T08:29:35;94481.78;;;13.40;43.91
35676;BME280;21790;42.668;23.298;2023-11-21T08:32:02;94478.84;;;13.49;43.89
35676;BME280;21790;42.668;23.298;2023-11-21T08:34:28;94472.13;;;13.56;43.84
35676;BME280;21790;42.668;23.298;2023-11-21T08:36:54;94480.22;;;13.59;44.25
35676;BME280;21790;42.668;23.298;2023-11-21T08:39:21;94470.38;;;13.78;43.63
35676;BME280;21790;42.668;23.298;2023-11-21T08:41:50;94467.28;;;13.97;42.84
35676;BME280;21790;42.668;23.298;2023-11-21T08:44:17;94473.94;;;14.05;42.88
35676;BME280;21790;42.668;23.298;2023-11-21T08:46:44;94474.00;;;14.10;42.43
35676;BME280;21790;42.668;23.298;2023-11-21T08:49:13;94467.13;;;14.06;42.34
35676;BME280;21790;42.668;23.298;2023-11-21T08:51:40;94465.91;;;14.07;42.68
35676;BME280;21790;42.668;23.298;2023-11-21T08:54:06;94457.88;;;14.14;42.99
35676;BME280;21790;42.668;23.298;2023-11-21T08:56:36;94470.09;;;14.22;42.75
35676;BME280;21790;42.668;23.298;2023-11-21T08:59:02;94446.97;;;14.11;42.94
35676;BME280;21790;42.668;23.298;2023-11-21T09:01:29;94445.38;;;14.30;42.66
35676;BME280;21790;42.668;23.298;2023-11-21T09:04:03;94452.47;;;14.31;42.48
35676;BME280;21790;42.668;23.298;2023-11-21T09:06:29;94439.19;;;14.15;42.82
35676;BME280;21790;42.668;23.298;2023-11-21T09:08:54;94426.88;;;14.21;41.97
35676;BME280;21790;42.668;23.298;2023-11-21T09:11:20;94413.69;;;14.42;41.52
35676;BME280;21790;42.668;23.298;2023-11-21T09:13:45;94410.47;;;14.49;41.42
35676;BME280;21790;42.668;23.298;2023-11-21T09:16:13;94412.31;;;14.63;41.40
35676;BME280;21790;42.668;23.298;2023-11-21T09:18:38;94403.50;;;14.65;41.27
35676;BME280;21790;42.668;23.298;2023-11-21T09:21:04;94405.22;;;14.62;40.94
35676;BME280;21790;42.668;23.298;2023-11-21T09:23:30;94402.72;;;14.33;41.73
35676;BME280;21790;42.668;23.298;2023-11-21T09:25:56;94383.47;;;14.30;41.50
35676;BME280;21790;42.668;23.298;2023-11-21T09:28:22;94387.13;;;14.41;41.70
35676;BME280;21790;42.668;23.298;2023-11-21T09:30:48;94389.69;;;14.45;42.07
35676;BME280;21790;42.668;23.298;2023-11-21T09:33:15;94371.00;;;14.45;41.68
35676;BME280;21790;42.668;23.298;2023-11-21T09:35:41;94357.72;;;14.60;41.76
35676;BME280;21790;42.668;23.298;2023-11-21T09:38:09;94359.22;;;14.61;42.27
35676;BME280;21790;42.668;23.298;2023-11-21T09:40:37;94359.31;;;14.73;41.74
35676;BME280;21790;42.668;23.298;2023-11-21T09:43:08;94352.59;;;14.96;41.62
35676;BME280;21790;42.668;23.298;2023-11-21T09:45:48;94347.97;;;14.82;41.39
35676;BME280;21790;42.668;23.298;2023-11-21T09:48:16;94336.38;;;14.89;41.98
35676;BME280;21790;42.668;23.298;2023-11-21T09:50:43;94322.53;;;15.05;41.57
35676;BME280;21790;42.668;23.298;2023-11-21T09:55:42;94305.84;;;15.11;40.68
35676;BME280;21790;42.668;23.298;2023-11-21T09:58:09;94306.84;;;15.02;41.18
35676;BME280;21790;42.668;23.298;2023-11-21T10:00:40;94308.47;;;15.31;40.99
35676;BME280;21790;42.668;23.298;2023-11-21T10:03:06;94309.00;;;15.46;41.04
35676;BME280;21790;42.668;23.298;2023-11-21T10:05:36;94307.53;;;15.62;41.06
35676;BME280;21790;42.668;23.298;2023-11-21T10:08:07;94293.38;;;15.77;39.79
35676;BME280;21790;42.668;23.298;2023-11-21T10:10:33;94298.19;;;15.60;39.97
35676;BME280;21790;42.668;23.298;2023-11-21T10:13:02;94289.34;;;15.78;39.50
35676;BME280;21790;42.668;23.298;2023-11-21T10:15:31;94283.28;;;15.85;39.55
35676;BME280;21790;42.668;23.298;2023-11-21T10:18:01;94271.38;;;15.96;39.03
35676;BME280;21790;42.668;23.298;2023-11-21T10:20:28;94269.34;;;16.07;39.20
35676;BME280;21790;42.668;23.298;2023-11-21T10:23:00;94272.13;;;16.18;39.03
35676;BME280;21790;42.668;23.298;2023-11-21T10:25:31;94274.91;;;16.18;39.08
35676;BME280;21790;42.668;23.298;2023-11-21T10:28:01;94272.34;;;16.26;38.80
35676;BME280;21790;42.668;23.298;2023-11-21T10:30:34;94267.28;;;16.24;39.29
35676;BME280;21790;42.668;23.298;2023-11-21T10:33:03;94263.00;;;15.90;40.05
35676;BME280;21790;42.668;23.298;2023-11-21T10:35:39;94262.50;;;16.08;39.94
35676;BME280;21790;42.668;23.298;2023-11-21T10:38:11;94263.75;;;16.13;39.35
35676;BME280;21790;42.668;23.298;2023-11-21T10:40:41;94260.47;;;16.03;39.07
35676;BME280;21790;42.668;23.298;2023-11-21T10:43:12;94251.84;;;16.12;39.34
35676;BME280;21790;42.668;23.298;2023-11-21T10:45:44;94252.09;;;16.09;39.53
35676;BME280;21790;42.668;23.298;2023-11-21T10:48:12;94252.34;;;15.94;39.59
35676;BME280;21790;42.668;23.298;2023-11-21T10:50:41;94253.38;;;15.91;39.90
35676;BME280;21790;42.668;23.298;2023-11-21T10:53:07;94253.63;;;15.99;39.60
35676;BME280;21790;42.668;23.298;2023-11-21T10:55:34;94239.69;;;15.93;39.06
35676;BME280;21790;42.668;23.298;2023-11-21T10:58:02;94238.41;;;15.83;39.06
35676;BME280;21790;42.668;23.298;2023-11-21T11:00:30;94245.78;;;15.86;39.45
35676;BME280;21790;42.668;23.298;2023-11-21T11:02:56;94238.94;;;15.70;39.53
35676;BME280;21790;42.668;23.298;2023-11-21T11:05:24;94243.22;;;15.77;39.55
35676;BME280;21790;42.668;23.298;2023-11-21T11:07:58;94230.81;;;15.89;39.48
35676;BME280;21790;42.668;23.298;2023-11-21T11:10:27;94230.81;;;15.89;38.95
35676;BME280;21790;42.668;23.298;2023-11-21T11:12:55;94228.03;;;15.89;38.92
35676;BME280;21790;42.668;23.298;2023-11-21T11:15:21;94218.91;;;15.94;39.01
35676;BME280;21790;42.668;23.298;2023-11-21T11:17:48;94219.44;;;15.98;38.75
35676;BME280;21790;42.668;23.298;2023-11-21T11:20:15;94205.75;;;16.00;38.31
35676;BME280;21790;42.668;23.298;2023-11-21T11:22:44;94204.75;;;15.92;38.55
35676;BME280;21790;42.668;23.298;2023-11-21T11:25:38;94200.44;;;15.97;38.71
35676;BME280;21790;42.668;23.298;2023-11-21T11:28:29;94191.31;;;16.02;38.64
35676;BME280;21790;42.668;23.298;2023-11-21T11:31:21;94189.53;;;15.93;38.67
35676;BME280;21790;42.668;23.298;2023-11-21T11:34:29;94186.47;;;16.08;38.64
35676;BME280;21790;42.668;23.298;2023-11-21T11:37:00;94187.25;;;16.03;37.89
35676;BME280;21790;42.668;23.298;2023-11-21T11:39:29;94184.97;;;15.90;38.33
35676;BME280;21790;42.668;23.298;2023-11-21T11:41:58;94187.00;;;15.84;38.53
35676;BME280;21790;42.668;23.298;2023-11-21T11:44:53;94199.19;;;15.92;39.29
35676;BME280;21790;42.668;23.298;2023-11-21T11:47:33;94201.97;;;15.86;39.86
35676;BME280;21790;42.668;23.298;2023-11-21T11:50:12;94207.53;;;15.75;40.86
35676;BME280;21790;42.668;23.298;2023-11-21T11:52:50;94201.72;;;15.73;41.00
35676;BME280;21790;42.668;23.298;2023-11-21T11:55:19;94197.16;;;15.59;41.79
35676;BME280;21790;42.668;23.298;2023-11-21T11:57:49;94192.34;;;15.76;41.13
35676;BME280;21790;42.668;23.298;2023-11-21T12:02:50;94187.78;;;15.79;41.84
35676;BME280;21790;42.668;23.298;2023-11-21T12:05:19;94202.47;;;15.52;42.68
35676;BME280;21790;42.668;23.298;2023-11-21T12:13:05;94199.16;;;15.47;45.52
35676;BME280;21790;42.668;23.298;2023-11-21T12:15:34;94198.38;;;15.41;46.73
35676;BME280;21790;42.668;23.298;2023-11-21T12:18:00;94207.22;;;15.23;48.26
35676;BME280;21790;42.668;23.298;2023-11-21T12:20:27;94216.31;;;15.24;49.04
35676;BME280;21790;42.668;23.298;2023-11-21T12:22:54;94204.38;;;15.06;49.58
35676;BME280;21790;42.668;23.298;2023-11-21T12:25:25;94189.00;;;15.28;48.08
35676;BME280;21790;42.668;23.298;2023-11-21T12:27:55;94191.47;;;14.98;48.67
35676;BME280;21790;42.668;23.298;2023-11-21T12:30:23;94195.81;;;15.04;50.00
35676;BME280;21790;42.668;23.298;2023-11-21T12:32:53;94206.41;;;15.06;50.18
35676;BME280;21790;42.668;23.298;2023-11-21T12:35:22;94193.75;;;14.88;49.92
35676;BME280;21790;42.668;23.298;2023-11-21T12:37:49;94201.06;;;14.86;50.98
35676;BME280;21790;42.668;23.298;2023-11-21T12:40:17;94198.00;;;14.73;50.30
35676;BME280;21790;42.668;23.298;2023-11-21T12:42:44;94201.03;;;14.75;50.03
35676;BME280;21790;42.668;23.298;2023-11-21T12:48:09;94176.28;;;14.88;49.65
35676;BME280;21790;42.668;23.298;2023-11-21T12:50:37;94181.09;;;14.87;49.77
35676;BME280;21790;42.668;23.298;2023-11-21T12:53:11;94163.66;;;14.92;49.37
35676;BME280;21790;42.668;23.298;2023-11-21T12:55:38;94167.66;;;14.75;49.82
35676;BME280;21790;42.668;23.298;2023-11-21T12:58:06;94165.38;;;14.84;49.89
35676;BME280;21790;42.668;23.298;2023-11-21T13:00:40;94159.31;;;14.75;48.60
35676;BME280;21790;42.668;23.298;2023-11-21T13:03:08;94157.78;;;14.79;49.30
35676;BME280;21790;42.668;23.298;2023-11-21T13:05:40;94154.81;;;14.94;49.16
35676;BME280;21790;42.668;23.298;2023-11-21T13:08:10;94147.22;;;14.89;47.39
35676;BME280;21790;42.668;23.298;2023-11-21T13:10:44;94156.06;;;14.87;47.77
35676;BME280;21790;42.668;23.298;2023-11-21T13:13:12;94144.38;;;14.67;48.42
35676;BME280;21790;42.668;23.298;2023-11-21T13:15:54;94149.72;;;14.81;49.14
35676;BME280;21790;42.668;23.298;2023-11-21T13:18:26;94143.78;;;14.46;49.33
35676;BME280;21790;42.668;23.298;2023-11-21T13:20:56;94156.22;;;14.56;49.33
35676;BME280;21790;42.668;23.298;2023-11-21T13:23:23;94163.56;;;14.59;48.42
35676;BME280;21790;42.668;23.298;2023-11-21T13:25:51;94150.69;;;14.61;48.26
35676;BME280;21790;42.668;23.298;2023-11-21T13:28:17;94151.19;;;14.60;48.13
35676;BME280;21790;42.668;23.298;2023-11-21T13:30:49;94146.41;;;14.72;48.14
35676;BME280;21790;42.668;23.298;2023-11-21T13:33:17;94130.47;;;14.67;48.32